Results by/Résultats par Info:[email protected] Phone: (613)260-0994


                                     K-TOWN TRIATHLON

                                  Sunday August 3th, 2003

                           Confederation Park, Kingston, Ontario

                                Overall Results - Duathlon

  -----FINAL----- ----------------------- ------------ -------------------- ----            4km                         30 km                   7.2 km         Minus
                                                       Category                     ------RUN + T1--------    ----------BIKE--------    -------RUN + T2------- ------
    Pos     Time  Name                    City         Plc/Total Category     #      Cat  Ovr  Time     km     Cat Ovr Time  km/hr      Cat  Ovr  Time     km  Bridge
  ------  ------- ----------------------- ------------ -------------------- ----    ----------------------    ----------------------    ---------------------- ------
    1     1:30:27 Tim Blackwell           Kingston       1/10  M30 - 34      768    1      1   13:54  3:29    1      3   49:36  36.3     1      1   26:58  3:45         
    2     1:36:38 James Layfield          Godfrey        1/14  M35 - 39      796    2      5   15:29  3:53    1      4   50:10  35.9     2     10   31:01  4:19         
    3     1:37:54 andy schuler            ottawa         2/10  M30 - 34     1047    2      6   15:31  3:53    2      7   51:28  35.0     2      9   30:56  4:18         
    4     1:38:07 Kim Kavluk              Stouffville    1/5   M45 - 49      748    1      7   15:38  3:55    1      9   52:18  34.4     1      7   30:12  4:12         
    5     1:38:19 Randal Dyzak            Kingston       1/12  M40 - 44      797    1     12   16:10  4:03    2      2   49:31  36.4     1     14   32:39  4:32         
    6     1:38:31 Alison Wiley            Toronto        1/2   Elite Women   753    1      3   15:25  3:52    1     24   54:12  33.2     1      2   28:55  4:01         
    7     1:39:12 michelle schuler        ottawa         1/5   W30 - 34      751    1      2   15:16  3:49    2     26   54:15  33.2     1      5   29:41  4:08         
    8     1:39:53 Patrick Foran           Ameliasburg    1/4   M20 - 24      772    1     11   16:06  4:02    1     27   54:23  33.1     1      4   29:25  4:06         
    9     1:40:47 Allan Anderson          Ottawa         2/5   M45 - 49      731    2     14   16:34  4:09    2     12   52:39  34.2     2     11   31:35  4:24         
   10     1:40:59 Lisa Balerna            Ottawa         2/2   Elite Women   754    2      9   15:55  3:59    2     36   56:04  32.1     2      3   29:01  4:02         
   11     1:41:08 Amanda Shaw             Ottawa         2/5   W30 - 34      725    3     15   16:36  4:09    1      5   51:07  35.2     3     17   33:26  4:39         
   12     1:41:47 Cam Miller              Kingston       3/10  M30 - 34      736    3     13   16:25  4:07    4     14   53:03  33.9     3     12   32:21  4:30         
   13     1:41:51 Paul OBlenes            Ottawa         2/12  M40 - 44      727    3     24   17:39  4:25    1      1   49:26  36.4     3     28   34:47  4:50         
   14     1:42:19 Sami Al-hussieni        Ottawa         4/10  M30 - 34      767    5     17   16:40  4:10    3     13   52:40  34.2     4     16   33:00  4:35         
   15     1:43:47 Jim Borrens             Ottawa         2/14  M35 - 39      766    3      8   15:41  3:56    2     20   53:40  33.6     3     23   34:26  4:47         
   16     1:44:12 Shelley Willemse        Bath           3/5   W30 - 34      790    2     10   16:04  4:01    3     46   57:33  31.3     2      8   30:37  4:16         
   17     1:44:40 Gregg Milne             Kingston       1/6   M25 - 29      720    1     18   16:45  4:12    3     31   55:19  32.5     1     13   32:38  4:32         
   18     1:44:42 brad power              kingston       2/6   M25 - 29      741    2     26   17:49  4:28    2     11   52:35  34.2     2     21   34:18  4:46         
   19     1:45:27 Suzan Ribenboim         Simpsonville   1/3   W40 - 44      773    1     20   16:54  4:14    1     33   55:41  32.3     1     15   32:53  4:34         
   20     1:45:37 Paul LeRoy              Almonte        5/10  M30 - 34      739    4     16   16:37  4:10    8     23   54:09  33.3     7     29   34:52  4:51         
   21     1:45:48 kevin little            kanata         3/6   M25 - 29      778    3     32   18:06  4:32    1     10   52:25  34.3     3     30   35:18  4:55         
   22     1:45:57 Peter Lee               Toronto        6/10  M30 - 34      722    6     23   17:18  4:20    7     22   54:04  33.3     5     25   34:35  4:49         
   23     1:46:34 Wendy Fitzpatrick       Ottawa         1/5   W35 - 39      779    1     25   17:43  4:26    1     29   54:55  32.8     1     19   33:57  4:43         
   24     1:47:14 Mark Babcock            Peterborough   7/10  M30 - 34      775    7     43   18:46  4:42    6     21   53:44  33.5     6     27   34:45  4:50         
   25     1:47:29 Gunther Klaschka        Kingston       1/2   M60 & Over    752    1     62   20:04  5:01    1      6   51:18  35.1     1     38   36:08  5:02         
   26     1:47:39 Steven Ross             Ottawa         3/12  M40 - 44      794    4     30   17:58  4:30    5     30   55:00  32.7     2     26   34:41  4:50         
   27     1:47:54 Kelly Cranston          Belleville     1/9   W25 - 29      723    3     57   19:49  4:58    1      8   52:16  34.4     2     34   35:50  4:59         
   28     1:48:00 Jeff DeVille            Trenton        8/10  M30 - 34      783    8     46   18:58  4:45    5     17   53:12  33.8     9     35   35:51  4:59         
   29     1:48:25 Steven Bonisteel        Kingston       4/12  M40 - 44      702    7     42   18:40  4:40    3     16   53:12  33.8     5     39   36:34  5:05         
   30     1:48:53 Derek King              Nepean         5/12  M40 - 44      756    5     35   18:13  4:34    4     19   53:19  33.8     7     44   37:22  5:12         
   31     1:49:06 Kyle Lunman             RR1 Inverary   2/4   M20 - 24      777    2     19   16:49  4:13    3     51   58:46  30.6     2     18   33:32  4:40         
   32     1:49:16 Brian Campbell          St. Catharin   1/2   M55 - 59      707    2     34   18:12  4:33    1     39   56:42  31.8     1     22   34:23  4:47         
   33     1:49:45 Margarita Sviajina      Kingston       4/5   W30 - 34      729    4     31   18:01  4:31    4     48   57:42  31.2     4     20   34:04  4:44         
   34     1:50:19 John Lesarge            Kingston       3/5   M45 - 49      786    4     54   19:21  4:51    3     18   53:15  33.8     4     46   37:44  5:15         
   35     1:50:35 Ian Thorpe              Carleton Pla   1/4   M50 - 54      757    1     49   19:13  4:49    1     25   54:14  33.2     1     40   37:09  5:10         
   36     1:50:43 Jeffrey Minicola        Peterborough   6/12  M40 - 44      749    2     22   17:14  4:19    6     37   56:18  32.0     6     41   37:12  5:10         
   37     1:51:08 Helen Paterson          Ottawa         2/9   W25 - 29      769    2     52   19:19  4:50    3     44   57:20  31.4     1     24   34:30  4:48         
   38     1:51:50 Alison James            Kingston       3/9   W25 - 29      781    1     45   18:53  4:44    2     15   53:11  33.9     3     56   39:47  5:32         
   39     1:51:53 Scott Semple            Kingston       3/14  M35 - 39      730    8     38   18:23  4:36    3     32   55:27  32.5     5     48   38:04  5:18         
   40     1:52:58 Joan Scibetta           Brewerton      2/5   W35 - 39      738    3     40   18:28  4:37    2     43   57:04  31.6     3     45   37:28  5:13         
   41     1:53:18 Brenda Ross             Ottawa         3/5   W35 - 39      793    2     39   18:24  4:36    3     54   59:12  30.4     2     32   35:43  4:58         
   42     1:53:20 Steve McCready          Kingston       4/14  M35 - 39      761    6     33   18:10  4:33    7     59   59:42  30.2     4     31   35:29  4:56         
   43     1:53:26 Peter Kingston          Kingston       4/5   M45 - 49      716    3     44   18:51  4:43    4     50   58:36  30.7     3     37   36:00  5:00         
   44     1:53:32 Craig Campbell          Odessa         5/14  M35 - 39      704    5     29   17:56  4:29    6     45   57:29  31.3     6     49   38:08  5:18         
   45     1:54:02 Louis Tay               Kingston       6/14  M35 - 39      743    1      4   15:27  3:52    12    83 1:08:43  26.2     1      6   29:54  4:10         
   46     1:54:04 Guy Dutil               Ottawa         2/2   M55 - 59      780    1     27   17:51  4:28    2     41   56:57  31.6     2     54   39:17  5:28         
   47     1:54:08 nicholas vienneau       Gananoque      3/4   M20 - 24      747    4     53   19:20  4:50    2     28   54:43  32.9     3     59   40:06  5:35         
   48     1:54:24 Tim McMichael           Kingston       7/12  M40 - 44      746    6     36   18:14  4:34    7     42   57:01  31.6     9     53   39:10  5:27         
   49     1:54:32 Peter Ellis             Kingston       8/12  M40 - 44      701    8     50   19:17  4:50    9     56   59:23  30.3     4     36   35:52  4:59         
   50     1:55:29 Colleen Cameron         Kingston       1/4   W20 - 24      711    2     51   19:18  4:50    1     53   58:55  30.6     1     43   37:16  5:11         
   51     1:55:48 Bill Legere             Kingston       7/14  M35 - 39      742    10    48   19:06  4:47    5     40   56:46  31.7     9     58   39:57  5:33         
   52     1:56:44 Diane Porteous          Kingston       1/6   W45 - 49      745    1     65   20:37  5:10    1     52   58:54  30.6     1     42   37:13  5:11         
   53     1:56:55 Brian Lewis             Kingston       9/12  M40 - 44      733    10    60   20:00  5:00    8     49   58:26  30.8     8     51   38:30  5:21         
   54     1:57:23 Sam McHugh              Kingston       4/6   M25 - 29      715    4     61   20:03  5:01    5     57   59:25  30.3     4     47   37:56  5:17         
   55     1:58:35 Brett Harris            Kingston       5/6   M25 - 29      788    5     71   21:26  5:22    4     38   56:21  32.0     5     62   40:49  5:41         
   56     1:59:03 Ken Milburn             kingston       8/14  M35 - 39      770    12    64   20:25  5:07    4     34   55:51  32.2     11    72   42:49  5:57         
   57     1:59:40 George Taylor           Yarker         9/14  M35 - 39      703    9     41   18:31  4:38    9     66 1:02:07  29.0     8     52   39:03  5:26         
   58     1:59:42 Michael MaGill          Kingston      10/12  M40 - 44      762    9     59   19:51  4:58    10    61 1:00:27  29.8     10    55   39:25  5:29         
   59     2:00:47 Gary Maxwell            Ottawa         2/4   M50 - 54      724    2     63   20:15  5:04    4     60   59:53  30.1     2     61   40:40  5:39         
   60     2:00:50 Jim Porteous            Kingston       3/4   M50 - 54      744    4     75   21:34  5:24    2     47   57:34  31.3     3     66   41:43  5:48         
   61     2:01:23 Mark Kuhlberg           Toronto       10/14  M35 - 39      782    11    56   19:47  4:57    10    70 1:03:11  28.5     7     50   38:27  5:21         
   62     2:02:15 Kevin Collins           Kingston      11/14  M35 - 39      760    7     37   18:16  4:34    8     64 1:01:37  29.2     10    70   42:23  5:54         
   63     2:02:42 Jane Armstrong          Kanata         2/6   W45 - 49      765    2     69   21:19  5:20    2     62 1:00:49  29.6     2     60   40:35  5:39         
   64     2:03:03 Mark McCrady            Sydenham       9/10  M30 - 34      771    9     55   19:37  4:55    10    63 1:01:31  29.3     10    67   41:55  5:50         
   65     2:03:56 Paul Hibbins            Toronto        4/4   M50 - 54      774    3     74   21:33  5:24    3     58   59:30  30.3     4     73   42:54  5:58         
   66     2:04:23 Wendy Phillips          Montreal       4/9   W25 - 29      764    4     58   19:51  4:58    6     73 1:04:45  27.8     4     57   39:48  5:32         
   67     2:05:03 Jim Storms              Kingston       5/5   M45 - 49      758    5     68   21:18  5:20    5     69 1:02:52  28.6     5     65   40:54  5:41         
   68     2:05:27 Kathy Mackenzie         Kingston       2/4   W20 - 24      798    1     47   19:05  4:47    2     75 1:05:32  27.5     2     63   40:50  5:41         
   69     2:08:01 Cherry Anne Daza        Arlington      5/9   W25 - 29      719    5     66   20:40  5:10    8     77 1:06:31  27.1     5     64   40:52  5:41         
   70     2:09:17 Cindy Healy             Kingston       2/3   W40 - 44      705    2     82   24:15  6:04    2     55   59:20  30.3     2     78   45:43  6:21         
   71     2:09:43 nathalie charbonneau    kanata         6/9   W25 - 29      776    6     78   22:37  5:40    5     71 1:03:32  28.3     6     75   43:35  6:04         
   72     2:09:44 Jane Cornish            Ottawa         3/6   W45 - 49      728    4     77   22:01  5:31    3     72 1:04:32  27.9     4     74   43:11  6:00         
   73     2:12:11 Sheila Kingston         Kingston       4/6   W45 - 49      717    3     76   21:57  5:30    4     80 1:08:13  26.4     3     68   42:03  5:51         
   74     2:12:33 Kristine Jones          Kingston       7/9   W25 - 29      721    9     87   24:56  6:14    4     67 1:02:07  29.0     8     77   45:30  6:20         
   75     2:15:47 Melissa Hart            Kingston       8/9   W25 - 29      713    7     80   23:27  5:52    7     74 1:05:31  27.5     9     80   46:50  6:31         
   76     2:16:51 Ceara McNeil            Etobicoke      9/9   W25 - 29      785    8     81   23:51  5:58    9     82 1:08:22  26.3     7     76   44:38  6:12         
   77     2:17:06 Jeff Eisen              Kingston      10/10  M30 - 34      734    10    94   45:25 11:22    9     35   55:56  32.2     8     33   35:45  4:58         
   78     2:17:33 Peter Kelcey            Toronto        6/6   M25 - 29      710    6     73   21:32  5:23    6     76 1:06:07  27.2     6     86   49:55  6:56         
   79     2:17:46 shirley lindenberg      belleville     3/3   W40 - 44      732    3     88   25:24  6:21    3     68 1:02:45  28.7     3     85   49:39  6:54         
   80     2:18:09 Shawn Ogilvie           North York    11/12  M40 - 44      708    12    72   21:28  5:22    11    84 1:10:55  25.4     12    79   45:48  6:22         
   81     2:18:37 Dennis Doherty          Kingston       2/2   M60 & Over    759    2     70   21:24  5:21    2     81 1:08:20  26.3     2     84   48:54  6:48         
   82     2:19:15 Cheryl Runions          Kingston       4/5   W35 - 39      787    5     86   24:54  6:14    4     65 1:01:37  29.2     5     90   52:45  7:20         
   83     2:21:42 Dan Rose                Belleville    12/12  M40 - 44      792    11    67   21:05  5:17    12    93 1:18:34  22.9     11    69   42:04  5:51         
   84     2:21:57 Krista Wells            Kingston       3/4   W20 - 24      791    3     92   32:08  8:02    3     78 1:07:03  26.9     3     71   42:47  5:57         
   85     2:23:53 Craig Field             Peterborough  12/14  M35 - 39      795    14    84   24:35  6:09    11    79 1:07:39  26.6     12    88   51:39  7:11         
   86     2:24:18 Karen Munro Heffernan   Peterborough   5/5   W35 - 39      718    4     85   24:42  6:11    5     87 1:12:18  24.9     4     81   47:19  6:35         
   87     2:25:44 Judy Crute              Toronto        5/6   W45 - 49      784    5     90   25:32  6:23    5     85 1:11:47  25.1     5     83   48:25  6:44         
   88     2:28:42 Ross Garland            Peterborough  13/14  M35 - 39      737    13    79   23:15  5:49    13    88 1:12:52  24.7     13    89   52:35  7:19         
   89     2:31:06 Jaelyn Caudle           Kingston       5/5   W30 - 34      763    5     83   24:25  6:07    5     92 1:18:18  23.0     5     82   48:24  6:44         
   90     2:36:17 Tara Wells              Kingston       4/4   W20 - 24      789    4     93   32:14  8:04    4     89 1:13:55  24.4     4     87   50:09  6:58         
   91     2:40:20 Terry Burns             Kingston       6/6   W45 - 49      706    6     91   26:36  6:39    6     90 1:16:09  23.6     6     92   57:36  8:00         
   92     2:50:52 Anne Dodington          Waterloo       1/1   W50 - 54      735    1     89   25:31  6:23    1     94 1:32:32  19.5     1     91   52:50  7:21         
   93             Omar Babaghi            Ottawa         4/4   M20 - 24      712    3     21   17:02  4:16    4     86 1:11:58  25.0                                    
   94             Kevin Gallagher         Toronto       14/14  M35 - 39      755    4     28   17:54  4:29    14    91 1:17:14  23.3